Weather at Delma Airport

Public forecast

Using degrees Celsius for public forecast. Weather courtesy of forecast.io.

Closest aviation weather report (METAR) to Delma Airport

Closest report is Hamad International Airport, 60.6 nm (112.2 km) NW.

2024/05/25 10:00 (retrieved 39 minutes ago)

OTHH 251000Z 02008KT CAVOK 39/15 Q1003 NOSIG

Closest aviation forecast (TAF) to Delma Airport

Closest forecast is Hamad International Airport, 60.6 nm (112.2 km) NW.

2024/05/25 06:00 (retrieved 5 hours ago)

TAF OTHH 250503Z 2506/2612 31009KT CAVOK TEMPO 2506/2518 02011KT